KBNL/BNL METAR and TAF weather

Enter ICAO airport designator
Station Type Date Time Source
KBNL METAR 2021/07/29 02:35 UTC NOAA

KBNL 290235Z AUTO 00000KT 10SM BKN048 BKN055 26/25 A3001 RMK AO2


Station Type Date Time Source
KBNL Decoded METAR 2021/07/29 02:35 UTC NOAA

Station name not available
Jul 28, 2021 - 10:35 PM EDT / 2021.07.29 0235 UTC
Wind: Calm:0
Visibility: 10 mile(s):0
Sky conditions: mostly cloudy
Temperature: 78 F (26 C)
Dew Point: 77 F (25 C)
Relative Humidity: 94%
Pressure (altimeter): 30.01 in. Hg (1016 hPa)
ob: KBNL 290235Z AUTO 00000KT 10SM BKN048 BKN055 26/25 A3001 RMK AO2
cycle: 2

Station Type Date Time Source
KBNL TAF UTC NOAA

Error!

Example: see airport list